createdAt,value
2018-09-17T00:01:33.661Z,95874.44
2018-09-17T00:04:01.654Z,95877.09
2018-09-17T00:06:27.021Z,95877.23
2018-09-17T00:08:53.665Z,95876.48
2018-09-17T00:11:20.312Z,95879.27
2018-09-17T00:13:46.971Z,95882.93
2018-09-17T00:16:18.860Z,95885.87
2018-09-17T00:18:44.806Z,95881.69
2018-09-17T00:21:10.139Z,95884.70
2018-09-17T00:23:38.091Z,95887.77
2018-09-17T00:26:03.582Z,95889.06
2018-09-17T00:28:30.281Z,95885.86
2018-09-17T00:30:56.917Z,95887.42
2018-09-17T00:33:23.550Z,95882.89
2018-09-17T00:35:53.939Z,95886.91
2018-09-17T00:38:19.310Z,95887.05
2018-09-17T00:40:45.974Z,95883.77
2018-09-17T00:43:12.735Z,95889.56
2018-09-17T00:45:40.418Z,95890.10
2018-09-17T00:48:06.019Z,95881.49
2018-09-17T00:50:32.807Z,95882.89
2018-09-17T00:52:59.481Z,95882.75
2018-09-17T00:55:41.112Z,95885.92
2018-09-17T00:58:06.142Z,95888.34
2018-09-17T01:00:32.828Z,95886.53
2018-09-17T01:02:59.480Z,95887.22
2018-09-17T01:05:26.204Z,95885.06
2018-09-17T01:07:52.811Z,95887.72
2018-09-17T01:10:27.264Z,95891.13
2018-09-17T01:12:49.000Z,95887.61
2018-09-17T01:15:15.769Z,95881.92
2018-09-17T01:17:42.409Z,95878.50
2018-09-17T01:20:09.050Z,95880.25
2018-09-17T01:22:35.705Z,95880.52
2018-09-17T01:25:02.374Z,95876.48
2018-09-17T01:27:29.090Z,95878.52
2018-09-17T01:29:55.868Z,95877.23
2018-09-17T01:32:22.510Z,95874.34
2018-09-17T01:34:50.537Z,95878.52
2018-09-17T01:37:15.855Z,95878.52
2018-09-17T01:39:42.625Z,95880.16
2018-09-17T01:42:09.396Z,95877.50
2018-09-17T01:44:36.038Z,95871.57
2018-09-17T01:47:02.715Z,95874.97
2018-09-17T01:49:29.407Z,95867.00
2018-09-17T01:51:56.056Z,95871.94
2018-09-17T01:54:24.780Z,95866.50
2018-09-17T01:56:51.430Z,95869.53
2018-09-17T01:59:21.164Z,95861.70
2018-09-17T02:01:49.121Z,95863.34
2018-09-17T02:04:14.461Z,95859.78
2018-09-17T02:06:41.143Z,95857.91
2018-09-17T02:09:10.892Z,95858.91
2018-09-17T02:11:37.522Z,95850.70
2018-09-17T02:16:55.794Z,95851.70
2018-09-17T02:19:29.596Z,95855.39
2018-09-17T02:21:57.289Z,95856.77
2018-09-17T02:24:22.885Z,95860.19
2018-09-17T02:26:49.543Z,95857.89
2018-09-17T02:29:16.210Z,95858.80
2018-09-17T02:31:42.861Z,95866.16
2018-09-17T02:34:09.503Z,95856.91
2018-09-17T02:36:36.159Z,95877.67
2018-09-17T02:39:04.825Z,95867.16
2018-09-17T02:41:29.499Z,95871.86
2018-09-17T02:43:56.137Z,95866.78
2018-09-17T02:46:34.110Z,95871.72
2018-09-17T02:48:49.494Z,95865.66
2018-09-17T02:51:17.503Z,95862.77
2018-09-17T02:53:42.865Z,95869.71
2018-09-17T02:56:09.524Z,95873.26
2018-09-17T02:58:36.208Z,95868.98
2018-09-17T03:01:02.884Z,95868.20
2018-09-17T03:03:29.605Z,95868.70
2018-09-17T03:05:56.243Z,95872.53
2018-09-17T03:08:22.903Z,95873.92
2018-09-17T03:10:49.533Z,95870.33
2018-09-17T03:13:16.222Z,95875.43
2018-09-17T03:15:43.016Z,95881.66
2018-09-17T03:18:09.754Z,95886.09
2018-09-17T03:20:36.394Z,95887.03
2018-09-17T03:23:03.165Z,95883.71
2018-09-17T03:25:32.952Z,95890.80
2018-09-17T03:27:59.680Z,95891.81
2018-09-17T03:30:26.405Z,95890.41
2018-09-17T03:32:53.120Z,95891.05
2018-09-17T03:35:19.760Z,95898.38
2018-09-17T03:37:46.413Z,95891.80
2018-09-17T03:40:13.077Z,95892.08
2018-09-17T03:42:41.004Z,95897.23
2018-09-17T03:45:06.377Z,95899.16
2018-09-17T03:47:33.060Z,95896.99
2018-09-17T03:49:59.716Z,95894.98
2018-09-17T03:52:26.387Z,95897.86
2018-09-17T03:54:53.151Z,95890.80
2018-09-17T03:57:19.882Z,95901.30
2018-09-17T03:59:48.722Z,95907.76
2018-09-17T04:02:14.242Z,95906.50
2018-09-17T04:04:44.928Z,95907.87
2018-09-17T04:07:11.622Z,95900.77
2018-09-17T04:09:38.266Z,95904.82
2018-09-17T04:12:04.910Z,95909.75
2018-09-17T04:14:31.641Z,95912.80
2018-09-17T04:17:01.223Z,95905.33
2018-09-17T04:19:27.866Z,95911.36
2018-09-17T04:21:55.560Z,95905.41
2018-09-17T04:24:21.206Z,95905.84
2018-09-17T04:26:52.162Z,95914.19
2018-09-17T04:29:17.788Z,95908.87
2018-09-17T04:31:44.496Z,95913.92
2018-09-17T04:34:11.134Z,95908.48
2018-09-17T04:36:39.193Z,95908.11
2018-09-17T04:39:04.470Z,95921.00
2018-09-17T04:41:33.406Z,95915.05
2018-09-17T04:44:02.473Z,95931.11
2018-09-17T04:46:34.624Z,95920.73
2018-09-17T04:48:59.737Z,95918.70
2018-09-17T04:51:26.438Z,95918.59
2018-09-17T04:53:53.117Z,95840.78
2018-09-17T04:56:23.197Z,95922.63
2018-09-17T04:58:49.849Z,95924.92
2018-09-17T05:01:16.486Z,95923.91
2018-09-17T05:03:43.160Z,95923.76
2018-09-17T05:06:09.809Z,95925.52
2018-09-17T05:08:36.464Z,95928.07
2018-09-17T05:11:03.118Z,95925.02
2018-09-17T05:13:29.948Z,95927.80
2018-09-17T05:15:59.269Z,95931.09
2018-09-17T05:18:25.925Z,95927.53
2018-09-17T05:20:52.619Z,95934.21
2018-09-17T05:23:19.282Z,95931.81
2018-09-17T05:25:47.825Z,95928.37
2018-09-17T05:28:12.584Z,95929.58
2018-09-17T05:30:39.292Z,95927.55
2018-09-17T05:33:05.940Z,95925.36
2018-09-17T05:35:32.632Z,95928.55
2018-09-17T05:38:09.281Z,95927.63
2018-09-17T05:40:35.953Z,95928.67
2018-09-17T05:43:02.656Z,95925.14
2018-09-17T05:45:33.585Z,95935.94
2018-09-17T05:47:59.008Z,95935.56
2018-09-17T05:50:25.649Z,95940.00
2018-09-17T05:52:57.761Z,95934.04
2018-09-17T05:55:21.981Z,95938.63
2018-09-17T05:57:48.618Z,95939.41
2018-09-17T06:02:42.983Z,95943.64
2018-09-17T06:05:09.750Z,95941.72
2018-09-17T06:07:35.400Z,95949.74
2018-09-17T06:10:05.783Z,95949.44
2018-09-17T06:12:30.934Z,95944.02
2018-09-17T06:14:57.579Z,95954.44
2018-09-17T06:17:24.301Z,95949.08
2018-09-17T06:19:50.926Z,95951.93
2018-09-17T06:22:17.590Z,95952.29
2018-09-17T06:24:50.256Z,95952.18
2018-09-17T06:27:17.488Z,95947.84
2018-09-17T06:29:44.170Z,95952.94
2018-09-17T06:32:13.754Z,95954.83
2018-09-17T06:34:40.391Z,95963.44
2018-09-17T06:37:07.119Z,95956.05
2018-09-17T06:39:33.788Z,95963.81
2018-09-17T06:44:50.207Z,95956.32
2018-09-17T06:47:17.084Z,95955.44
2018-09-17T06:49:43.735Z,95965.16
2018-09-17T06:52:13.344Z,95961.88
2018-09-17T06:54:39.995Z,95963.13
2018-09-17T06:57:06.717Z,95969.23
2018-09-17T06:59:33.493Z,95971.87
2018-09-17T07:02:00.240Z,95976.16
2018-09-17T07:04:27.811Z,95972.34
2018-09-17T07:06:54.448Z,95976.16
2018-09-17T07:09:21.172Z,95974.42
2018-09-17T07:11:47.908Z,95981.75
2018-09-17T07:14:14.606Z,95987.19
2018-09-17T07:16:45.443Z,95988.67
2018-09-17T07:19:10.803Z,95984.11
2018-09-17T07:21:38.827Z,95982.98
2018-09-17T07:24:04.120Z,95980.71
2018-09-17T07:26:32.212Z,95988.52
2018-09-17T07:28:57.451Z,95992.70
2018-09-17T07:31:24.179Z,95976.75
2018-09-17T07:33:50.887Z,95990.69
2018-09-17T07:36:17.554Z,95981.92
2018-09-17T07:38:45.473Z,95974.09
2018-09-17T07:41:10.872Z,95979.16
2018-09-17T07:43:40.940Z,95984.11
2018-09-17T07:46:10.682Z,95983.45
2018-09-17T07:48:37.350Z,95975.91
2018-09-17T07:51:04.052Z,95968.66
2018-09-17T07:53:34.875Z,95960.50
2018-09-17T07:56:01.669Z,95965.45
2018-09-17T07:58:29.662Z,95952.89
2018-09-17T08:00:57.882Z,95960.91
2018-09-17T08:03:29.368Z,95964.05
2018-09-17T08:05:52.384Z,95960.78
2018-09-17T08:08:19.436Z,95960.63
2018-09-17T08:10:46.167Z,95954.00
2018-09-17T08:13:13.314Z,95951.59
2018-09-17T08:15:40.108Z,95945.38
2018-09-17T08:18:06.760Z,95941.95
2018-09-17T08:20:33.419Z,95937.70
2018-09-17T08:23:00.206Z,95936.39
2018-09-17T08:25:27.004Z,95937.86
2018-09-17T08:27:53.723Z,95938.28
2018-09-17T08:30:20.461Z,95933.15
2018-09-17T08:32:49.327Z,95938.24
2018-09-17T08:35:17.919Z,95929.75
2018-09-17T08:37:43.249Z,95930.37
2018-09-17T08:40:10.021Z,95922.41
2018-09-17T08:42:36.770Z,95919.75
2018-09-17T08:45:03.532Z,95915.56
2018-09-17T08:47:30.192Z,95910.89
2018-09-17T08:49:59.739Z,95912.32
2018-09-17T08:52:26.390Z,95916.66
2018-09-17T08:54:53.044Z,95911.85
2018-09-17T08:57:19.760Z,95903.22
2018-09-17T08:59:48.575Z,95912.30
2018-09-17T09:02:15.265Z,95907.70
2018-09-17T09:04:41.889Z,95907.28
2018-09-17T09:07:08.620Z,95900.23
2018-09-17T09:09:38.147Z,95903.57
2018-09-17T09:12:06.501Z,95899.19
2018-09-17T09:14:31.889Z,95897.83
2018-09-17T09:16:58.534Z,95885.90
2018-09-17T09:19:25.192Z,95887.73
2018-09-17T09:21:51.880Z,95881.14
2018-09-17T09:24:21.473Z,95875.82
2018-09-17T09:26:48.141Z,95873.95
2018-09-17T09:29:16.919Z,95870.73
2018-09-17T09:31:41.503Z,95872.82
2018-09-17T09:34:08.179Z,95870.57
2018-09-17T09:36:34.829Z,95874.16
2018-09-17T09:39:01.533Z,95864.69
2018-09-17T09:41:28.306Z,95858.31
2018-09-17T09:43:54.953Z,95855.52
2018-09-17T09:46:24.780Z,95854.19
2018-09-17T09:48:53.431Z,95852.04
2018-09-17T09:51:20.204Z,95831.17
2018-09-17T09:53:55.569Z,95842.41
2018-09-17T09:56:20.833Z,95849.02
2018-09-17T09:58:47.611Z,95845.99
2018-09-17T10:01:14.409Z,95845.84
2018-09-17T10:03:41.059Z,95837.42
2018-09-17T10:06:07.843Z,95841.53
2018-09-17T10:08:43.172Z,95842.59
2018-09-17T10:11:12.731Z,95838.30
2018-09-17T10:13:39.508Z,95843.80
2018-09-17T10:16:06.188Z,95839.41
2018-09-17T10:18:35.141Z,95840.48
2018-09-17T10:20:59.662Z,95837.47
2018-09-17T10:23:26.401Z,95835.19
2018-09-17T10:25:53.059Z,95830.59
2018-09-17T10:28:22.404Z,95834.15
2018-09-17T10:30:50.479Z,95830.59
2018-09-17T10:33:15.792Z,95825.72
2018-09-17T10:35:45.199Z,95830.78
2018-09-17T10:38:15.065Z,95832.35
2018-09-17T10:40:40.653Z,95826.82
2018-09-17T10:43:07.277Z,95812.11
2018-09-17T10:45:33.966Z,95822.60
2018-09-17T10:48:02.130Z,95821.36
2018-09-17T10:50:27.457Z,95825.69
2018-09-17T10:52:57.769Z,95818.08
2018-09-17T10:55:22.985Z,95818.77
2018-09-17T10:57:52.473Z,95807.80
2018-09-17T11:00:20.481Z,95806.23
2018-09-17T11:02:53.912Z,95801.11
2018-09-17T11:05:20.579Z,95807.08
2018-09-17T11:07:47.241Z,95805.94
2018-09-17T11:10:13.951Z,95807.17
2018-09-17T11:12:40.545Z,95802.36
2018-09-17T11:15:07.276Z,95797.59
2018-09-17T11:17:34.457Z,95799.25
2018-09-17T11:20:01.127Z,95802.97
2018-09-17T11:22:34.763Z,95802.16
2018-09-17T11:24:59.628Z,95797.12
2018-09-17T11:27:29.472Z,95797.18
2018-09-17T11:29:57.843Z,95800.69
2018-09-17T11:32:22.814Z,95794.43
2018-09-17T11:34:54.270Z,95802.30
2018-09-17T11:37:31.815Z,95796.45
2018-09-17T11:39:44.329Z,95797.00
2018-09-17T11:42:09.737Z,95797.94
2018-09-17T11:44:40.962Z,95788.91
2018-09-17T11:47:04.331Z,95795.31
2018-09-17T11:49:29.833Z,95792.73
2018-09-17T11:51:57.695Z,95794.77
2018-09-17T11:54:23.173Z,95789.52
2018-09-17T11:56:49.824Z,95791.92
2018-09-17T11:59:16.482Z,95787.91
2018-09-17T12:01:43.135Z,95780.45
2018-09-17T12:04:09.891Z,95780.75
2018-09-17T12:06:37.598Z,95777.72
2018-09-17T12:09:04.510Z,95771.42
2018-09-17T12:11:29.866Z,95770.97
2018-09-17T12:13:56.501Z,95768.42
2018-09-17T12:16:23.278Z,95771.20
2018-09-17T12:18:49.966Z,95769.01
2018-09-17T12:21:16.625Z,95768.53
2018-09-17T12:23:43.291Z,95767.09
2018-09-17T12:26:13.254Z,95759.72
2018-09-17T12:28:39.929Z,95762.20
2018-09-17T12:31:06.576Z,95751.64
2018-09-17T12:33:33.288Z,95760.12
2018-09-17T12:35:59.949Z,95760.92
2018-09-17T12:38:26.631Z,95747.17
2018-09-17T12:40:53.314Z,95744.64
2018-09-17T12:43:25.158Z,95747.48
2018-09-17T12:45:51.810Z,95735.86
2018-09-17T12:48:18.498Z,95742.94
2018-09-17T12:50:45.261Z,95740.14
2018-09-17T12:53:12.064Z,95739.00
2018-09-17T12:55:38.763Z,95743.67
2018-09-17T12:58:05.672Z,95733.37
2018-09-17T13:00:32.342Z,95734.59
2018-09-17T13:03:00.263Z,95735.06
2018-09-17T13:05:25.643Z,95729.36
2018-09-17T13:07:55.385Z,95721.30
2018-09-17T13:10:22.071Z,95725.66
2018-09-17T13:12:48.817Z,95728.83
2018-09-17T13:15:15.488Z,95715.05
2018-09-17T13:17:50.232Z,95719.86
2018-09-17T13:20:16.968Z,95714.66
2018-09-17T13:22:48.333Z,95706.72
2018-09-17T13:25:22.519Z,95709.25
2018-09-17T13:27:44.667Z,95712.38
2018-09-17T13:30:14.548Z,95697.62
2018-09-17T13:32:41.286Z,95704.07
2018-09-17T13:35:07.930Z,95706.38
2018-09-17T13:37:34.632Z,95702.58
2018-09-17T13:40:03.595Z,95702.56
2018-09-17T13:42:30.313Z,95705.91
2018-09-17T13:45:00.386Z,95700.70
2018-09-17T13:47:27.069Z,95700.77
2018-09-17T13:49:53.697Z,95693.98
2018-09-17T13:52:23.656Z,95693.63
2018-09-17T13:54:50.314Z,95695.86
2018-09-17T13:57:17.068Z,95691.06
2018-09-17T13:59:43.768Z,95689.25
2018-09-17T14:02:10.399Z,95687.90
2018-09-17T14:04:40.495Z,95685.10
2018-09-17T14:07:09.133Z,95678.47
2018-09-17T14:09:37.226Z,95674.36
2018-09-17T14:12:02.580Z,95673.16
2018-09-17T14:14:29.337Z,95668.23
2018-09-17T14:16:56.104Z,95666.03
2018-09-17T14:19:22.831Z,95664.64
2018-09-17T14:21:51.361Z,95662.87
2018-09-17T14:24:16.209Z,95664.48
2018-09-17T14:26:47.692Z,95670.34
2018-09-17T14:29:14.414Z,95664.42
2018-09-17T14:31:41.081Z,95670.77
2018-09-17T14:34:07.730Z,95669.82
2018-09-17T14:36:34.359Z,95669.07
2018-09-17T14:39:01.107Z,95663.65
2018-09-17T14:41:27.737Z,95668.42
2018-09-17T14:43:54.475Z,95665.38
2018-09-17T14:46:21.088Z,95666.05
2018-09-17T14:48:50.515Z,95667.20
2018-09-17T14:51:17.242Z,95666.06
2018-09-17T14:53:44.063Z,95665.88
2018-09-17T14:56:10.670Z,95665.28
2018-09-17T14:58:37.411Z,95664.47
2018-09-17T15:01:04.060Z,95664.27
2018-09-17T15:03:30.728Z,95656.02
2018-09-17T15:05:57.380Z,95666.50
2018-09-17T15:08:24.171Z,95663.79
2018-09-17T15:10:50.798Z,95669.87
2018-09-17T15:13:17.429Z,95663.57
2018-09-17T15:15:44.123Z,95665.91
2018-09-17T15:18:12.859Z,95676.17
2018-09-17T15:20:37.417Z,95666.84
2018-09-17T15:23:04.075Z,95669.08
2018-09-17T15:25:36.444Z,95664.02
2018-09-17T15:28:00.948Z,95663.25
2018-09-17T15:30:27.656Z,95672.92
2018-09-17T15:32:54.320Z,95674.42
2018-09-17T15:35:20.949Z,95676.62
2018-09-17T15:37:59.213Z,95677.20
2018-09-17T15:40:26.067Z,95683.30
2018-09-17T15:42:52.512Z,95680.52
2018-09-17T15:45:20.642Z,95676.47
2018-09-17T15:47:45.923Z,95682.03
2018-09-17T15:50:15.752Z,95682.48
2018-09-17T15:52:42.673Z,95681.68
2018-09-17T15:55:09.768Z,95679.11
2018-09-17T15:57:40.012Z,95690.11
2018-09-17T16:00:04.552Z,95690.87
2018-09-17T16:02:31.374Z,95691.69
2018-09-17T16:04:57.980Z,95692.52
2018-09-17T16:07:26.552Z,95687.48
2018-09-17T16:09:51.311Z,95687.13
2018-09-17T16:12:18.052Z,95682.30
2018-09-17T16:14:44.794Z,95682.84
2018-09-17T16:17:11.439Z,95681.97
2018-09-17T16:19:38.078Z,95683.02
2018-09-17T16:22:04.756Z,95683.73
2018-09-17T16:24:31.489Z,95683.10
2018-09-17T16:26:58.137Z,95690.42
2018-09-17T16:29:24.778Z,95685.28
2018-09-17T16:31:51.417Z,95688.31
2018-09-17T16:34:18.061Z,95688.59
2018-09-17T16:36:45.061Z,95685.95
2018-09-17T16:39:15.095Z,95689.00
2018-09-17T16:41:41.852Z,95683.48
2018-09-17T16:44:14.835Z,95691.43
2018-09-17T16:46:35.077Z,95686.77
2018-09-17T16:49:01.711Z,95690.69
2018-09-17T16:51:30.786Z,95692.06
2018-09-17T16:53:57.551Z,95697.16
2018-09-17T16:56:24.287Z,95694.23
2018-09-17T16:58:50.983Z,95700.45
2018-09-17T17:01:20.988Z,95699.43
2018-09-17T17:03:49.022Z,95703.91
2018-09-17T17:06:14.305Z,95711.08
2018-09-17T17:08:40.991Z,95708.67
2018-09-17T17:11:07.675Z,95712.31
2018-09-17T17:13:34.284Z,95710.64
2018-09-17T17:16:01.005Z,95715.39
2018-09-17T17:18:27.607Z,95709.59
2018-09-17T17:20:54.299Z,95718.13
2018-09-17T17:23:20.936Z,95718.20
2018-09-17T17:25:47.584Z,95708.39
2018-09-17T17:28:14.237Z,95710.34
2018-09-17T17:30:40.887Z,95709.71
2018-09-17T17:33:07.628Z,95709.05
2018-09-17T17:35:34.222Z,95715.65
2018-09-17T17:38:00.872Z,95714.94
2018-09-17T17:40:27.683Z,95707.91
2018-09-17T17:42:54.174Z,95713.30
2018-09-17T17:45:20.814Z,95717.73
2018-09-17T17:47:47.452Z,95727.11
2018-09-17T17:50:14.101Z,95727.73
2018-09-17T17:52:42.187Z,95729.44
2018-09-17T17:55:07.392Z,95736.00
2018-09-17T17:57:34.066Z,95726.14
2018-09-17T18:00:03.236Z,95733.23
2018-09-17T18:02:29.899Z,95734.11
2018-09-17T18:04:56.543Z,95734.23
2018-09-17T18:07:25.466Z,95735.58
2018-09-17T18:09:49.973Z,95737.84
2018-09-17T18:12:19.243Z,95743.03
2018-09-17T18:14:45.978Z,95749.71
2018-09-17T18:17:15.136Z,95756.66
2018-09-17T18:19:41.811Z,95746.55
2018-09-17T18:22:08.465Z,95754.23
2018-09-17T18:24:35.072Z,95747.92
2018-09-17T18:27:03.048Z,95752.08
2018-09-17T18:29:28.419Z,95751.84
2018-09-17T18:31:55.069Z,95754.34
2018-09-17T18:34:21.755Z,95755.49
2018-09-17T18:36:48.474Z,95746.78
2018-09-17T18:39:18.196Z,95752.11
2018-09-17T18:41:44.828Z,95751.59
2018-09-17T18:44:11.498Z,95746.66
2018-09-17T18:46:39.367Z,95748.55
2018-09-17T18:49:04.786Z,95750.70
2018-09-17T18:51:31.439Z,95750.47
2018-09-17T18:53:58.191Z,95745.80
2018-09-17T18:56:24.768Z,95748.42
2018-09-17T18:58:51.406Z,95749.90
2018-09-17T19:01:18.057Z,95745.69
2018-09-17T19:03:46.144Z,95746.08
2018-09-17T19:06:11.544Z,95738.88
2018-09-17T19:08:38.134Z,95744.73
2018-09-17T19:11:04.814Z,95749.80
2018-09-17T19:13:31.453Z,95754.34
2018-09-17T19:15:58.116Z,95751.34
2018-09-17T19:18:24.740Z,95755.41
2018-09-17T19:20:54.290Z,95757.80
2018-09-17T19:23:20.598Z,95754.25
2018-09-17T19:25:47.248Z,95755.16
2018-09-17T19:28:13.990Z,95757.42
2018-09-17T19:30:40.576Z,95755.40
2018-09-17T19:33:07.354Z,95754.78
2018-09-17T19:35:33.990Z,95758.19
2018-09-17T19:38:00.709Z,95767.28
2018-09-17T19:40:29.121Z,95769.17
2018-09-17T19:42:53.939Z,95772.83
2018-09-17T19:45:20.911Z,95774.73
2018-09-17T19:47:47.637Z,95772.70
2018-09-17T19:50:14.345Z,95762.47
2018-09-17T19:52:40.955Z,95760.84
2018-09-17T19:55:07.645Z,95756.77
2018-09-17T19:57:35.462Z,95760.66
2018-09-17T20:00:02.211Z,95761.56
2018-09-17T20:02:28.908Z,95770.70
2018-09-17T20:04:55.551Z,95770.05
2018-09-17T20:07:22.287Z,95765.27
2018-09-17T20:09:49.026Z,95771.33
2018-09-17T20:12:15.664Z,95771.33
2018-09-17T20:14:42.351Z,95775.84
2018-09-17T20:17:08.969Z,95773.94
2018-09-17T20:19:35.656Z,95781.66
2018-09-17T20:22:02.307Z,95785.44
2018-09-17T20:24:28.993Z,95788.59
2018-09-17T20:26:55.704Z,95781.89
2018-09-17T20:29:22.336Z,95794.78
2018-09-17T20:31:49.070Z,95796.04
2018-09-17T20:34:15.649Z,95791.98
2018-09-17T20:36:42.305Z,95799.20
2018-09-17T20:39:08.984Z,95797.55
2018-09-17T20:41:35.630Z,95797.81
2018-09-17T20:44:02.267Z,95792.76
2018-09-17T20:46:28.999Z,95792.79
2018-09-17T20:48:55.791Z,95791.52
2018-09-17T20:51:22.382Z,95794.81
2018-09-17T20:53:49.036Z,95801.59
2018-09-17T20:56:15.682Z,95797.82
2018-09-17T20:58:42.371Z,95800.09
2018-09-17T21:01:10.399Z,95796.53
2018-09-17T21:03:37.129Z,95796.67
2018-09-17T21:06:02.578Z,95793.48
2018-09-17T21:08:29.227Z,95797.41
2018-09-17T21:10:55.856Z,95804.22
2018-09-17T21:13:25.722Z,95794.88
2018-09-17T21:15:52.394Z,95799.43
2018-09-17T21:18:19.041Z,95798.28
2018-09-17T21:20:45.674Z,95797.00
2018-09-17T21:23:12.330Z,95806.09
2018-09-17T21:25:38.974Z,95806.34
2018-09-17T21:28:08.541Z,95805.72
2018-09-17T21:30:35.188Z,95808.63
2018-09-17T21:33:01.820Z,95810.75
2018-09-17T21:35:28.540Z,95814.42
2018-09-17T21:37:55.223Z,95819.48
2018-09-17T21:40:21.891Z,95815.34
2018-09-17T21:42:48.591Z,95817.13
2018-09-17T21:45:15.236Z,95811.83
2018-09-17T21:47:41.934Z,95815.34
2018-09-17T21:50:08.570Z,95814.42
2018-09-17T21:52:35.368Z,95815.95
2018-09-17T21:55:01.917Z,95809.50
2018-09-17T21:57:28.628Z,95813.66
2018-09-17T21:59:56.623Z,95811.76
2018-09-17T22:02:22.073Z,95812.11
2018-09-17T22:04:48.624Z,95818.66
2018-09-17T22:07:16.504Z,95820.67
2018-09-17T22:09:41.929Z,95823.55
2018-09-17T22:12:08.657Z,95820.16
2018-09-17T22:14:35.380Z,95823.44
2018-09-17T22:17:02.047Z,95817.75
2018-09-17T22:19:28.697Z,95819.77
2018-09-17T22:21:55.338Z,95811.30
2018-09-17T22:24:23.099Z,95818.38
2018-09-17T22:26:49.804Z,95810.92
2018-09-17T22:29:16.481Z,95820.95
2018-09-17T22:31:43.219Z,95811.89
2018-09-17T22:34:10.649Z,95817.09
2018-09-17T22:36:37.210Z,95815.21
2018-09-17T22:39:03.888Z,95813.42
2018-09-17T22:41:30.537Z,95813.63
2018-09-17T22:43:57.229Z,95815.13
2018-09-17T22:46:23.869Z,95812.34
2018-09-17T22:48:50.509Z,95807.66
2018-09-17T22:51:17.165Z,95809.05
2018-09-17T22:53:43.842Z,95809.25
2018-09-17T22:56:10.559Z,95813.77
2018-09-17T22:58:37.243Z,95814.77
2018-09-17T23:01:03.842Z,95809.35
2018-09-17T23:03:30.564Z,95811.22
2018-09-17T23:05:57.213Z,95807.30
2018-09-17T23:08:23.854Z,95811.70
2018-09-17T23:10:50.532Z,95812.75
2018-09-17T23:13:17.255Z,95818.64
2018-09-17T23:15:43.934Z,95820.79
2018-09-17T23:18:10.663Z,95819.54
2018-09-17T23:20:37.317Z,95820.27
2018-09-17T23:23:03.963Z,95824.23
2018-09-17T23:25:30.651Z,95817.62
2018-09-17T23:27:57.291Z,95820.95
2018-09-17T23:30:23.983Z,95818.70
2018-09-17T23:32:52.746Z,95818.90
2018-09-17T23:35:19.440Z,95818.75
2018-09-17T23:37:46.073Z,95819.93
2018-09-17T23:40:12.759Z,95818.26
2018-09-17T23:42:42.189Z,95811.70
2018-09-17T23:45:08.859Z,95806.14
2018-09-17T23:47:35.475Z,95804.75
2018-09-17T23:50:02.114Z,95803.33
2018-09-17T23:52:28.881Z,95792.84
2018-09-17T23:54:55.512Z,95804.95
2018-09-17T23:57:22.161Z,95801.08
2018-09-17T23:59:48.808Z,95798.68
